Green Fast — ZDHA9 — position and weather

sailwx.info

Track history (hours):
 
Tides and Currents Weather Stations Pressure Air Temp Water Temp Dewpoint Dewpoint Depression Visibility Wind Speed Wind Dir Waves Ship Positions

Green Fast

Last reported at 2017-Feb-18 08:32 UTC. Time now 2017-Feb-21 09:55 UTC.
Position N 35°49' E 014°52'.

Length 118 m; draft 7 m.

Type: Cargo ship. MMSI: 236294000.

Date/timePositionNaut miles runAvg speedWind from/ knotsBaromVisibWave heightAir tempDewpointWater temp
2017-Feb-18 08:32N 35°49' E 014°52'1312.8
2017-Feb-18 07:33N 35°48' E 014°37'4 0.2
2017-Feb-17 14:14N 35°49' E 014°32'2 2.8
2017-Feb-17 13:33N 35°48' E 014°35'3 2.5
2017-Feb-17 12:33N 35°49' E 014°38'2 1.6
2017-Feb-17 11:33N 35°50' E 014°39'1 0.5
2017-Feb-17 10:33N 35°50' E 014°39'5 5.3
2017-Feb-17 09:33N 35°54' E 014°44'5 3.6
2017-Feb-17 08:05N 35°58' E 014°48'0 0.0
2017-Feb-17 07:32N 35°58' E 014°48'0 0.0
2017-Feb-17 06:32N 35°58' E 014°48'0 0.0
2017-Feb-17 05:32N 35°58' E 014°48'0 0.0
2017-Feb-17 04:32N 35°58' E 014°48'0 0.0
2017-Feb-17 03:32N 35°58' E 014°48'0 0.0
2017-Feb-17 02:23N 35°58' E 014°48'0 0.0
2017-Feb-17 01:32N 35°58' E 014°48'0 0.0
2017-Feb-17 00:29N 35°58' E 014°48'0 0.0
2017-Feb-16 23:32N 35°58' E 014°48'0 0.0
2017-Feb-16 22:32N 35°58' E 014°48'0 0.0
2017-Feb-16 21:32N 35°58' E 014°48'0 0.0
2017-Feb-16 20:20N 35°58' E 014°48'0 0.0
2017-Feb-16 19:32N 35°58' E 014°48'0 0.0
2017-Feb-16 18:32N 35°58' E 014°48'0 0.0
2017-Feb-16 17:32N 35°58' E 014°48'0 0.0
2017-Feb-16 16:29N 35°58' E 014°48'0 0.0
2017-Feb-16 15:32N 35°58' E 014°48'0 0.0
2017-Feb-16 14:26N 35°58' E 014°48'0 0.0
2017-Feb-16 13:14N 35°58' E 014°48'0 0.0
2017-Feb-16 12:32N 35°58' E 014°48'0 0.0
2017-Feb-16 11:32N 35°58' E 014°48'0 0.0
2017-Feb-16 10:32N 35°58' E 014°48'0 0.0
2017-Feb-16 09:23N 35°58' E 014°48'0 0.0
2017-Feb-16 08:32N 35°58' E 014°48'0 0.0
2017-Feb-16 07:32N 35°58' E 014°48'0 0.0
2017-Feb-16 06:32N 35°58' E 014°48'0 0.0
2017-Feb-16 05:32N 35°58' E 014°48'0 0.0
2017-Feb-16 04:32N 35°58' E 014°48'0 0.0
2017-Feb-16 03:32N 35°58' E 014°48'0 0.0
2017-Feb-16 02:32N 35°58' E 014°48'0 0.0
2017-Feb-16 01:32N 35°58' E 014°48'0 0.0
2017-Feb-16 00:32N 35°58' E 014°48'0 0.0
2017-Feb-15 23:32N 35°58' E 014°48'0 0.0
2017-Feb-15 22:32N 35°58' E 014°48'0 0.0
2017-Feb-15 21:32N 35°58' E 014°48'0 0.0
2017-Feb-15 20:32N 35°58' E 014°48'0 0.0
2017-Feb-15 19:32N 35°58' E 014°48'0 0.0
2017-Feb-15 18:29N 35°58' E 014°48'0 0.0
2017-Feb-15 17:32N 35°58' E 014°48'0 0.0
2017-Feb-15 16:29N 35°58' E 014°48'0 0.0
2017-Feb-15 15:32N 35°58' E 014°48'0 0.0
2017-Feb-15 14:32N 35°58' E 014°48'0 0.0
2017-Feb-15 13:32N 35°58' E 014°48'0 0.0
2017-Feb-15 12:32N 35°58' E 014°48'0 0.0
2017-Feb-15 11:32N 35°58' E 014°48'0 0.0
2017-Feb-15 10:29N 35°58' E 014°48'0 0.0
2017-Feb-15 09:32N 35°58' E 014°48'0 0.0
2017-Feb-15 08:26N 35°58' E 014°48'0 0.0
2017-Feb-15 07:32N 35°58' E 014°48'0 0.0
2017-Feb-15 06:32N 35°58' E 014°48'0 0.0
2017-Feb-15 05:32N 35°58' E 014°48'0 0.0
2017-Feb-15 04:32N 35°58' E 014°48'0 0.0
2017-Feb-15 03:32N 35°58' E 014°48'0 0.0
2017-Feb-15 02:29N 35°58' E 014°48'0 0.0
2017-Feb-15 01:32N 35°58' E 014°48'0 0.0
2017-Feb-15 00:32N 35°58' E 014°48'0 0.0
2017-Feb-14 23:32N 35°58' E 014°48'0 0.0
2017-Feb-14 22:32N 35°58' E 014°48'0 0.0
2017-Feb-14 21:32N 35°58' E 014°48'0 0.0
2017-Feb-14 20:32N 35°58' E 014°48'0 0.0
2017-Feb-14 19:32N 35°58' E 014°48'0 0.0
2017-Feb-14 18:32N 35°58' E 014°48'0 0.0
2017-Feb-14 17:26N 35°58' E 014°48'0 0.0
2017-Feb-14 16:32N 35°58' E 014°48'0 0.0
2017-Feb-14 15:32N 35°58' E 014°48'0 0.0
2017-Feb-14 14:32N 35°58' E 014°48'0 0.0
2017-Feb-14 13:32N 35°58' E 014°48'2 2.2
2017-Feb-14 12:33N 35°56' E 014°47'3 2.5
2017-Feb-14 11:32N 35°54' E 014°45'0 0.0
2017-Feb-14 10:32N 35°54' E 014°45'0 0.0
2017-Feb-14 09:32N 35°54' E 014°45'0 0.0
2017-Feb-14 08:32N 35°54' E 014°45'0 0.0
2017-Feb-14 07:32N 35°54' E 014°45'0 0.0
2017-Feb-14 06:29N 35°54' E 014°45'0 0.0
2017-Feb-14 05:32N 35°54' E 014°45'0 0.0
2017-Feb-14 04:32N 35°54' E 014°45'0 0.0
2017-Feb-14 03:32N 35°54' E 014°45'0 0.0
2017-Feb-14 02:32N 35°54' E 014°45'0 0.0
2017-Feb-14 01:32N 35°54' E 014°45'0 0.0
2017-Feb-14 00:32N 35°54' E 014°45'0 0.0
2017-Feb-13 23:32N 35°54' E 014°45'0 0.0
2017-Feb-13 22:32N 35°54' E 014°45'0 0.0
2017-Feb-13 21:26N 35°54' E 014°45'0 0.0
2017-Feb-13 20:32N 35°54' E 014°45'0 0.0
2017-Feb-13 19:32N 35°54' E 014°45'0 0.0
2017-Feb-13 18:32N 35°54' E 014°45'0 0.0
2017-Feb-13 17:32N 35°54' E 014°45'0 0.0
2017-Feb-13 16:32N 35°54' E 014°45'0 0.0
2017-Feb-13 15:32N 35°54' E 014°45'0 0.0
2017-Feb-13 14:29N 35°54' E 014°45'0 0.0
2017-Feb-13 13:29N 35°54' E 014°45'0 0.0
2017-Feb-13 12:32N 35°54' E 014°45'0 0.0
2017-Feb-13 11:32N 35°54' E 014°45'0 0.0
2017-Feb-13 10:32N 35°54' E 014°45'0 0.0
2017-Feb-13 09:29N 35°54' E 014°45'0 0.1
2017-Feb-13 08:32N 35°54' E 014°45'4 3.9
2017-Feb-13 07:29N 35°57' E 014°48'0 0.0
2017-Feb-13 06:32N 35°57' E 014°48'0 0.0
2017-Feb-13 03:29N 35°57' E 014°48'0 0.0
2017-Feb-13 02:29N 35°57' E 014°48'0 0.0
2017-Feb-13 01:32N 35°57' E 014°48'0 0.0
2017-Feb-13 00:26N 35°57' E 014°48'0 0.0
2017-Feb-12 23:29N 35°57' E 014°48'0 0.0
2017-Feb-12 22:29N 35°57' E 014°48'0 0.0
2017-Feb-12 21:26N 35°57' E 014°48'0 0.0
2017-Feb-12 20:32N 35°57' E 014°48'0 0.0
2017-Feb-12 19:26N 35°57' E 014°48'0 0.0
2017-Feb-12 18:32N 35°57' E 014°48'0 0.0
2017-Feb-12 17:29N 35°57' E 014°48'0 0.0
2017-Feb-12 16:32N 35°57' E 014°48'0 0.0
2017-Feb-12 15:32N 35°57' E 014°48'0 0.0
2017-Feb-12 14:29N 35°57' E 014°48'0 0.0
2017-Feb-12 13:32N 35°57' E 014°48'0 0.0
2017-Feb-12 12:32N 35°57' E 014°48'0 0.0
2017-Feb-12 07:05N 35°57' E 014°48'0 0.0
2017-Feb-12 06:20N 35°57' E 014°48'0 0.0
2017-Feb-12 05:23N 35°57' E 014°48'0 0.0
2017-Feb-12 04:26N 35°57' E 014°48'0 0.0
2017-Feb-12 03:29N 35°57' E 014°48'0 0.0
2017-Feb-12 02:32N 35°57' E 014°48'0 0.0
2017-Feb-12 01:26N 35°57' E 014°48'0 0.0
2017-Feb-12 00:29N 35°57' E 014°48'0 0.0
2017-Feb-11 23:32N 35°57' E 014°48'0 0.0
2017-Feb-11 22:32N 35°57' E 014°48'0 0.0
2017-Feb-11 21:32N 35°57' E 014°48'0 0.0
2017-Feb-11 20:32N 35°57' E 014°48'0 0.0
2017-Feb-11 19:26N 35°57' E 014°48'0 0.0
2017-Feb-11 18:17N 35°57' E 014°48'0 0.0
2017-Feb-11 17:32N 35°57' E 014°48'0 0.0
2017-Feb-11 16:32N 35°57' E 014°48'0 0.0
2017-Feb-11 15:29N 35°57' E 014°48'0 0.0
2017-Feb-11 14:29N 35°57' E 014°48'0 0.0
2017-Feb-11 13:32N 35°57' E 014°48'0 0.0
2017-Feb-11 12:32N 35°57' E 014°48'0 0.0
2017-Feb-11 11:32N 35°57' E 014°48'0 0.0
2017-Feb-11 10:32N 35°57' E 014°48'0 0.0
2017-Feb-11 09:32N 35°57' E 014°48'0 0.0
2017-Feb-11 08:32N 35°57' E 014°48'0 0.0
2017-Feb-11 07:32N 35°57' E 014°48'0 0.0
2017-Feb-11 06:29N 35°57' E 014°48'0 0.0
2017-Feb-11 05:32N 35°57' E 014°48'0 0.1
2017-Feb-11 04:23N 35°57' E 014°48'0 0.0
2017-Feb-11 03:32N 35°57' E 014°48'0 0.0
2017-Feb-11 02:29N 35°57' E 014°48'0 0.1
2017-Feb-11 01:32N 35°57' E 014°48'0 0.0
2017-Feb-10 15:08N 35°57' E 014°48'0 0.0
2017-Feb-10 11:32N 35°57' E 014°48'0 0.1
2017-Feb-10 10:32N 35°57' E 014°48'0 0.0
2017-Feb-10 09:32N 35°57' E 014°48'0 0.0
2017-Feb-10 08:29N 35°57' E 014°48'0 0.0
2017-Feb-10 07:26N 35°57' E 014°48'0 0.0
2017-Feb-10 06:26N 35°57' E 014°48'0 0.0
2017-Feb-10 05:32N 35°57' E 014°48'0 0.0
2017-Feb-10 04:32N 35°57' E 014°48'0 0.0
2017-Feb-10 03:32N 35°57' E 014°48'0 0.1
2017-Feb-10 02:29N 35°57' E 014°48'0 0.0
2017-Feb-10 01:26N 35°57' E 014°48'0 0.1
2017-Feb-10 00:32N 35°57' E 014°48'0 0.1
2017-Feb-09 23:32N 35°57' E 014°48'0 0.0
2017-Feb-09 22:32N 35°57' E 014°48'0 0.0
2017-Feb-09 21:29N 35°57' E 014°48'0 0.0
2017-Feb-09 20:32N 35°57' E 014°48'0 0.0
2017-Feb-09 19:32N 35°57' E 014°48'0 0.0
2017-Feb-09 18:31N 35°57' E 014°48'0 0.0
2017-Feb-09 17:31N 35°57' E 014°48'0 0.0
2017-Feb-09 16:31N 35°57' E 014°48'0 0.0
2017-Feb-09 15:31N 35°57' E 014°48'0 0.0
2017-Feb-09 14:31N 35°57' E 014°48'0 0.0
2017-Feb-09 13:28N 35°57' E 014°48'0 0.0
2017-Feb-09 12:31N 35°57' E 014°48'0 0.0
2017-Feb-09 11:28N 35°57' E 014°48'0 0.0
2017-Feb-09 10:31N 35°57' E 014°48'0 0.0
2017-Feb-09 09:31N 35°57' E 014°48'0 0.0
2017-Feb-09 08:28N 35°57' E 014°48'0 0.0
2017-Feb-09 07:31N 35°57' E 014°48'0 0.0
2017-Feb-08 23:13N 35°57' E 014°48'0 0.0
2017-Feb-08 22:31N 35°57' E 014°48'0 0.0
2017-Feb-08 17:25N 35°57' E 014°48'0 0.0
2017-Feb-08 16:31N 35°57' E 014°48'0 0.0
2017-Feb-08 15:25N 35°57' E 014°48'0 0.0
2017-Feb-08 14:31N 35°57' E 014°48'0 0.0
2017-Feb-08 13:31N 35°57' E 014°48'0 0.0
2017-Feb-08 12:31N 35°57' E 014°48'0 0.0
2017-Feb-08 11:31N 35°57' E 014°48'  
Track history (hours):
 
Tides and Currents Weather Stations Pressure Air Temp Water Temp Dewpoint Dewpoint Depression Visibility Wind Speed Wind Dir Waves Ship Positions

Green Fast

Last reported at 2017-Feb-18 08:32 UTC. Time now 2017-Feb-21 09:55 UTC.
Position N 35°49' E 014°52'.

Length 118 m; draft 7 m.

Type: Cargo ship. MMSI: 236294000.

Date/timePositionNaut miles runAvg speedWind from/ knotsBaromVisibWave heightAir tempDewpointWater temp
2017-Feb-18 08:32N 35°49' E 014°52'1312.8
2017-Feb-18 07:33N 35°48' E 014°37'4 0.2
2017-Feb-17 14:14N 35°49' E 014°32'2 2.8
2017-Feb-17 13:33N 35°48' E 014°35'3 2.5
2017-Feb-17 12:33N 35°49' E 014°38'2 1.6
2017-Feb-17 11:33N 35°50' E 014°39'1 0.5
2017-Feb-17 10:33N 35°50' E 014°39'5 5.3
2017-Feb-17 09:33N 35°54' E 014°44'5 3.6
2017-Feb-17 08:05N 35°58' E 014°48'0 0.0
2017-Feb-17 07:32N 35°58' E 014°48'0 0.0
2017-Feb-17 06:32N 35°58' E 014°48'0 0.0
2017-Feb-17 05:32N 35°58' E 014°48'0 0.0
2017-Feb-17 04:32N 35°58' E 014°48'0 0.0
2017-Feb-17 03:32N 35°58' E 014°48'0 0.0
2017-Feb-17 02:23N 35°58' E 014°48'0 0.0
2017-Feb-17 01:32N 35°58' E 014°48'0 0.0
2017-Feb-17 00:29N 35°58' E 014°48'0 0.0
2017-Feb-16 23:32N 35°58' E 014°48'0 0.0
2017-Feb-16 22:32N 35°58' E 014°48'0 0.0
2017-Feb-16 21:32N 35°58' E 014°48'0 0.0
2017-Feb-16 20:20N 35°58' E 014°48'0 0.0
2017-Feb-16 19:32N 35°58' E 014°48'0 0.0
2017-Feb-16 18:32N 35°58' E 014°48'0 0.0
2017-Feb-16 17:32N 35°58' E 014°48'0 0.0
2017-Feb-16 16:29N 35°58' E 014°48'0 0.0
2017-Feb-16 15:32N 35°58' E 014°48'0 0.0
2017-Feb-16 14:26N 35°58' E 014°48'0 0.0
2017-Feb-16 13:14N 35°58' E 014°48'0 0.0
2017-Feb-16 12:32N 35°58' E 014°48'0 0.0
2017-Feb-16 11:32N 35°58' E 014°48'0 0.0
2017-Feb-16 10:32N 35°58' E 014°48'0 0.0
2017-Feb-16 09:23N 35°58' E 014°48'0 0.0
2017-Feb-16 08:32N 35°58' E 014°48'0 0.0
2017-Feb-16 07:32N 35°58' E 014°48'0 0.0
2017-Feb-16 06:32N 35°58' E 014°48'0 0.0
2017-Feb-16 05:32N 35°58' E 014°48'0 0.0
2017-Feb-16 04:32N 35°58' E 014°48'0 0.0
2017-Feb-16 03:32N 35°58' E 014°48'0 0.0
2017-Feb-16 02:32N 35°58' E 014°48'0 0.0
2017-Feb-16 01:32N 35°58' E 014°48'0 0.0
2017-Feb-16 00:32N 35°58' E 014°48'0 0.0
2017-Feb-15 23:32N 35°58' E 014°48'0 0.0
2017-Feb-15 22:32N 35°58' E 014°48'0 0.0
2017-Feb-15 21:32N 35°58' E 014°48'0 0.0
2017-Feb-15 20:32N 35°58' E 014°48'0 0.0
2017-Feb-15 19:32N 35°58' E 014°48'0 0.0
2017-Feb-15 18:29N 35°58' E 014°48'0 0.0
2017-Feb-15 17:32N 35°58' E 014°48'0 0.0
2017-Feb-15 16:29N 35°58' E 014°48'0 0.0
2017-Feb-15 15:32N 35°58' E 014°48'0 0.0
2017-Feb-15 14:32N 35°58' E 014°48'0 0.0
2017-Feb-15 13:32N 35°58' E 014°48'0 0.0
2017-Feb-15 12:32N 35°58' E 014°48'0 0.0
2017-Feb-15 11:32N 35°58' E 014°48'0 0.0
2017-Feb-15 10:29N 35°58' E 014°48'0 0.0
2017-Feb-15 09:32N 35°58' E 014°48'0 0.0
2017-Feb-15 08:26N 35°58' E 014°48'0 0.0
2017-Feb-15 07:32N 35°58' E 014°48'0 0.0
2017-Feb-15 06:32N 35°58' E 014°48'0 0.0
2017-Feb-15 05:32N 35°58' E 014°48'0 0.0
2017-Feb-15 04:32N 35°58' E 014°48'0 0.0
2017-Feb-15 03:32N 35°58' E 014°48'0 0.0
2017-Feb-15 02:29N 35°58' E 014°48'0 0.0
2017-Feb-15 01:32N 35°58' E 014°48'0 0.0
2017-Feb-15 00:32N 35°58' E 014°48'0 0.0
2017-Feb-14 23:32N 35°58' E 014°48'0 0.0
2017-Feb-14 22:32N 35°58' E 014°48'0 0.0
2017-Feb-14 21:32N 35°58' E 014°48'0 0.0
2017-Feb-14 20:32N 35°58' E 014°48'0 0.0
2017-Feb-14 19:32N 35°58' E 014°48'0 0.0
2017-Feb-14 18:32N 35°58' E 014°48'0 0.0
2017-Feb-14 17:26N 35°58' E 014°48'0 0.0
2017-Feb-14 16:32N 35°58' E 014°48'0 0.0
2017-Feb-14 15:32N 35°58' E 014°48'0 0.0
2017-Feb-14 14:32N 35°58' E 014°48'0 0.0
2017-Feb-14 13:32N 35°58' E 014°48'2 2.2
2017-Feb-14 12:33N 35°56' E 014°47'3 2.5
2017-Feb-14 11:32N 35°54' E 014°45'0 0.0
2017-Feb-14 10:32N 35°54' E 014°45'0 0.0
2017-Feb-14 09:32N 35°54' E 014°45'0 0.0
2017-Feb-14 08:32N 35°54' E 014°45'0 0.0
2017-Feb-14 07:32N 35°54' E 014°45'0 0.0
2017-Feb-14 06:29N 35°54' E 014°45'0 0.0
2017-Feb-14 05:32N 35°54' E 014°45'0 0.0
2017-Feb-14 04:32N 35°54' E 014°45'0 0.0
2017-Feb-14 03:32N 35°54' E 014°45'0 0.0
2017-Feb-14 02:32N 35°54' E 014°45'0 0.0
2017-Feb-14 01:32N 35°54' E 014°45'0 0.0
2017-Feb-14 00:32N 35°54' E 014°45'0 0.0
2017-Feb-13 23:32N 35°54' E 014°45'0 0.0
2017-Feb-13 22:32N 35°54' E 014°45'0 0.0
2017-Feb-13 21:26N 35°54' E 014°45'0 0.0
2017-Feb-13 20:32N 35°54' E 014°45'0 0.0
2017-Feb-13 19:32N 35°54' E 014°45'0 0.0
2017-Feb-13 18:32N 35°54' E 014°45'0 0.0
2017-Feb-13 17:32N 35°54' E 014°45'0 0.0
2017-Feb-13 16:32N 35°54' E 014°45'0 0.0
2017-Feb-13 15:32N 35°54' E 014°45'0 0.0
2017-Feb-13 14:29N 35°54' E 014°45'0 0.0
2017-Feb-13 13:29N 35°54' E 014°45'0 0.0
2017-Feb-13 12:32N 35°54' E 014°45'0 0.0
2017-Feb-13 11:32N 35°54' E 014°45'0 0.0
2017-Feb-13 10:32N 35°54' E 014°45'0 0.0
2017-Feb-13 09:29N 35°54' E 014°45'0 0.1
2017-Feb-13 08:32N 35°54' E 014°45'4 3.9
2017-Feb-13 07:29N 35°57' E 014°48'0 0.0
2017-Feb-13 06:32N 35°57' E 014°48'0 0.0
2017-Feb-13 03:29N 35°57' E 014°48'0 0.0
2017-Feb-13 02:29N 35°57' E 014°48'0 0.0
2017-Feb-13 01:32N 35°57' E 014°48'0 0.0
2017-Feb-13 00:26N 35°57' E 014°48'0 0.0
2017-Feb-12 23:29N 35°57' E 014°48'0 0.0
2017-Feb-12 22:29N 35°57' E 014°48'0 0.0
2017-Feb-12 21:26N 35°57' E 014°48'0 0.0
2017-Feb-12 20:32N 35°57' E 014°48'0 0.0
2017-Feb-12 19:26N 35°57' E 014°48'0 0.0
2017-Feb-12 18:32N 35°57' E 014°48'0 0.0
2017-Feb-12 17:29N 35°57' E 014°48'0 0.0
2017-Feb-12 16:32N 35°57' E 014°48'0 0.0
2017-Feb-12 15:32N 35°57' E 014°48'0 0.0
2017-Feb-12 14:29N 35°57' E 014°48'0 0.0
2017-Feb-12 13:32N 35°57' E 014°48'0 0.0
2017-Feb-12 12:32N 35°57' E 014°48'0 0.0
2017-Feb-12 07:05N 35°57' E 014°48'0 0.0
2017-Feb-12 06:20N 35°57' E 014°48'0 0.0
2017-Feb-12 05:23N 35°57' E 014°48'0 0.0
2017-Feb-12 04:26N 35°57' E 014°48'0 0.0
2017-Feb-12 03:29N 35°57' E 014°48'0 0.0
2017-Feb-12 02:32N 35°57' E 014°48'0 0.0
2017-Feb-12 01:26N 35°57' E 014°48'0 0.0
2017-Feb-12 00:29N 35°57' E 014°48'0 0.0
2017-Feb-11 23:32N 35°57' E 014°48'0 0.0
2017-Feb-11 22:32N 35°57' E 014°48'0 0.0
2017-Feb-11 21:32N 35°57' E 014°48'0 0.0
2017-Feb-11 20:32N 35°57' E 014°48'0 0.0
2017-Feb-11 19:26N 35°57' E 014°48'0 0.0
2017-Feb-11 18:17N 35°57' E 014°48'0 0.0
2017-Feb-11 17:32N 35°57' E 014°48'0 0.0
2017-Feb-11 16:32N 35°57' E 014°48'0 0.0
2017-Feb-11 15:29N 35°57' E 014°48'0 0.0
2017-Feb-11 14:29N 35°57' E 014°48'0 0.0
2017-Feb-11 13:32N 35°57' E 014°48'0 0.0
2017-Feb-11 12:32N 35°57' E 014°48'0 0.0
2017-Feb-11 11:32N 35°57' E 014°48'0 0.0
2017-Feb-11 10:32N 35°57' E 014°48'0 0.0
2017-Feb-11 09:32N 35°57' E 014°48'0 0.0
2017-Feb-11 08:32N 35°57' E 014°48'0 0.0
2017-Feb-11 07:32N 35°57' E 014°48'0 0.0
2017-Feb-11 06:29N 35°57' E 014°48'0 0.0
2017-Feb-11 05:32N 35°57' E 014°48'0 0.1
2017-Feb-11 04:23N 35°57' E 014°48'0 0.0
2017-Feb-11 03:32N 35°57' E 014°48'0 0.0
2017-Feb-11 02:29N 35°57' E 014°48'0 0.1
2017-Feb-11 01:32N 35°57' E 014°48'0 0.0
2017-Feb-10 15:08N 35°57' E 014°48'0 0.0
2017-Feb-10 11:32N 35°57' E 014°48'0 0.1
2017-Feb-10 10:32N 35°57' E 014°48'0 0.0
2017-Feb-10 09:32N 35°57' E 014°48'0 0.0
2017-Feb-10 08:29N 35°57' E 014°48'0 0.0
2017-Feb-10 07:26N 35°57' E 014°48'0 0.0
2017-Feb-10 06:26N 35°57' E 014°48'0 0.0
2017-Feb-10 05:32N 35°57' E 014°48'0 0.0
2017-Feb-10 04:32N 35°57' E 014°48'0 0.0
2017-Feb-10 03:32N 35°57' E 014°48'0 0.1
2017-Feb-10 02:29N 35°57' E 014°48'0 0.0
2017-Feb-10 01:26N 35°57' E 014°48'0 0.1
2017-Feb-10 00:32N 35°57' E 014°48'0 0.1
2017-Feb-09 23:32N 35°57' E 014°48'0 0.0
2017-Feb-09 22:32N 35°57' E 014°48'0 0.0
2017-Feb-09 21:29N 35°57' E 014°48'0 0.0
2017-Feb-09 20:32N 35°57' E 014°48'0 0.0
2017-Feb-09 19:32N 35°57' E 014°48'0 0.0
2017-Feb-09 18:31N 35°57' E 014°48'0 0.0
2017-Feb-09 17:31N 35°57' E 014°48'0 0.0
2017-Feb-09 16:31N 35°57' E 014°48'0 0.0
2017-Feb-09 15:31N 35°57' E 014°48'0 0.0
2017-Feb-09 14:31N 35°57' E 014°48'0 0.0
2017-Feb-09 13:28N 35°57' E 014°48'0 0.0
2017-Feb-09 12:31N 35°57' E 014°48'0 0.0
2017-Feb-09 11:28N 35°57' E 014°48'0 0.0
2017-Feb-09 10:31N 35°57' E 014°48'0 0.0
2017-Feb-09 09:31N 35°57' E 014°48'0 0.0
2017-Feb-09 08:28N 35°57' E 014°48'0 0.0
2017-Feb-09 07:31N 35°57' E 014°48'0 0.0
2017-Feb-08 23:13N 35°57' E 014°48'0 0.0
2017-Feb-08 22:31N 35°57' E 014°48'0 0.0
2017-Feb-08 17:25N 35°57' E 014°48'0 0.0
2017-Feb-08 16:31N 35°57' E 014°48'0 0.0
2017-Feb-08 15:25N 35°57' E 014°48'0 0.0
2017-Feb-08 14:31N 35°57' E 014°48'0 0.0
2017-Feb-08 13:31N 35°57' E 014°48'0 0.0
2017-Feb-08 12:31N 35°57' E 014°48'0 0.0
2017-Feb-08 11:31N 35°57' E 014°48'  

Dump ship's entire track history